createdAt,value
2016-12-27T00:03:57.311Z,1014.3
2016-12-27T00:09:00.269Z,1014.4
2016-12-27T00:14:03.200Z,1014.3
2016-12-27T00:19:06.164Z,1014.5
2016-12-27T00:24:09.196Z,1014.4
2016-12-27T00:29:12.143Z,1014.3
2016-12-27T00:34:15.093Z,1014.1
2016-12-27T00:39:18.058Z,1014.2
2016-12-27T00:44:21.002Z,1014.1
2016-12-27T00:49:23.940Z,1014.2
2016-12-27T00:54:26.877Z,1014.1
2016-12-27T00:59:29.840Z,1014.2
2016-12-27T01:04:32.778Z,1014.3
2016-12-27T01:09:35.713Z,1014.6
2016-12-27T01:14:38.656Z,1014.6
2016-12-27T01:19:41.609Z,1014.4
2016-12-27T01:24:44.567Z,1014.4
2016-12-27T01:29:47.503Z,1014.6
2016-12-27T01:34:50.443Z,1014.6
2016-12-27T01:39:53.386Z,1014.7
2016-12-27T01:44:56.319Z,1014.9
2016-12-27T01:49:59.267Z,1014.8
2016-12-27T01:55:02.259Z,1014.6
2016-12-27T02:00:05.209Z,1014.3
2016-12-27T02:05:08.152Z,1014.1
2016-12-27T02:10:11.095Z,1014.2
2016-12-27T02:15:14.035Z,1014.2
2016-12-27T02:20:16.990Z,1014.3
2016-12-27T02:25:19.965Z,1014.4
2016-12-27T02:30:22.916Z,1014.2
2016-12-27T02:35:25.865Z,1014.2
2016-12-27T02:40:28.798Z,1014.4
2016-12-27T02:45:31.726Z,1014.5
2016-12-27T02:50:34.676Z,1014.5
2016-12-27T02:55:37.611Z,1014.4
2016-12-27T03:00:40.552Z,1014.5
2016-12-27T03:05:43.500Z,1014.6
2016-12-27T03:10:46.442Z,1014.5
2016-12-27T03:15:49.385Z,1014.8
2016-12-27T03:20:52.336Z,1014.8
2016-12-27T03:25:55.275Z,1014.9
2016-12-27T03:30:58.225Z,1014.9
2016-12-27T03:36:01.704Z,1014.6
2016-12-27T03:41:04.630Z,1014.9
2016-12-27T03:46:07.560Z,1014.9
2016-12-27T03:51:10.488Z,1014.6
2016-12-27T03:56:13.439Z,1014.7
2016-12-27T04:01:16.378Z,1015
2016-12-27T04:06:19.330Z,1015.5
2016-12-27T04:11:22.271Z,1015.6
2016-12-27T04:16:25.200Z,1016
2016-12-27T04:21:28.142Z,1015.9
2016-12-27T04:26:31.071Z,1016
2016-12-27T04:31:34.014Z,1016
2016-12-27T04:36:36.967Z,1016.1
2016-12-27T04:41:39.902Z,1015.9
2016-12-27T04:46:42.862Z,1016.3
2016-12-27T04:51:45.803Z,1016.4
2016-12-27T04:56:48.761Z,1016.4
2016-12-27T05:01:51.689Z,1016.4
2016-12-27T05:06:54.650Z,1016.5
2016-12-27T05:11:57.603Z,1016.9
2016-12-27T05:17:00.541Z,1016.8
2016-12-27T05:22:03.495Z,1017
2016-12-27T05:27:06.427Z,1016.8
2016-12-27T05:32:09.355Z,1017
2016-12-27T05:37:12.314Z,1017
2016-12-27T05:42:15.240Z,1017.1
2016-12-27T05:47:18.190Z,1017.4
2016-12-27T05:52:21.146Z,1017.2
2016-12-27T05:57:24.090Z,1017.2
2016-12-27T06:02:27.023Z,1017.2
2016-12-27T06:07:29.971Z,1017.4
2016-12-27T06:12:32.922Z,1017.4
2016-12-27T06:17:35.877Z,1017.5
2016-12-27T06:22:38.812Z,1017.6
2016-12-27T06:27:41.760Z,1017.6
2016-12-27T06:32:44.703Z,1017.5
2016-12-27T06:37:47.658Z,1017.5
2016-12-27T06:42:50.599Z,1017.4
2016-12-27T06:47:53.530Z,1017.7
2016-12-27T06:52:56.477Z,1018
2016-12-27T06:57:59.431Z,1017.9
2016-12-27T07:03:02.374Z,1018.1
2016-12-27T07:08:05.323Z,1018
2016-12-27T07:13:08.261Z,1018.4
2016-12-27T07:18:11.198Z,1018.5
2016-12-27T07:23:14.128Z,1018.5
2016-12-27T07:28:17.086Z,1018.4
2016-12-27T07:33:20.029Z,1018.7
2016-12-27T07:38:22.965Z,1018.5
2016-12-27T07:43:25.898Z,1018.9
2016-12-27T07:48:28.830Z,1018.8
2016-12-27T07:53:31.767Z,1018.9
2016-12-27T07:58:34.697Z,1019.2
2016-12-27T08:03:37.667Z,1019.1
2016-12-27T08:08:40.610Z,1019.1
2016-12-27T08:13:43.549Z,1019.3
2016-12-27T08:18:46.499Z,1019.3
2016-12-27T08:23:49.448Z,1019.7
2016-12-27T08:28:52.388Z,1019.7
2016-12-27T08:33:55.336Z,1019.6
2016-12-27T08:39:14.889Z,1019.9
2016-12-27T08:44:26.497Z,1019.8
2016-12-27T08:49:30.110Z,1020.2
2016-12-27T08:54:33.147Z,1020.2
2016-12-27T08:59:36.206Z,1020.3
2016-12-27T09:04:39.151Z,1020.6
2016-12-27T09:09:42.273Z,1020.7
2016-12-27T09:14:45.204Z,1020.7
2016-12-27T09:19:48.219Z,1020.9
2016-12-27T09:24:51.168Z,1020.9
2016-12-27T09:29:54.091Z,1021.1
2016-12-27T09:34:57.063Z,1021.3
2016-12-27T09:40:00.055Z,1021.2
2016-12-27T09:45:02.982Z,1021.7
2016-12-27T09:50:05.936Z,1022
2016-12-27T09:55:08.894Z,1021.9
2016-12-27T10:00:11.819Z,1021.9
2016-12-27T10:05:14.729Z,1021.8
2016-12-27T10:10:17.641Z,1022
2016-12-27T10:15:20.603Z,1022
2016-12-27T10:20:23.519Z,1022
2016-12-27T10:25:26.463Z,1022
2016-12-27T10:26:45.022Z,1022.1
2016-12-27T10:27:25.394Z,1022
2016-12-27T10:32:28.532Z,1022.1
2016-12-27T10:37:31.487Z,1022.4
2016-12-27T10:42:34.462Z,1022.6
2016-12-27T10:47:37.523Z,1022.9
2016-12-27T10:52:40.514Z,1022.9
2016-12-27T14:17:29.852Z,1026.3
2016-12-27T14:17:47.563Z,1026.4
2016-12-27T14:22:50.588Z,1026.3
2016-12-27T14:27:53.722Z,1026.5
2016-12-27T14:32:57.229Z,1026.6
2016-12-27T14:38:01.984Z,1026.7
2016-12-27T14:43:05.701Z,1026.6
2016-12-27T14:48:09.399Z,1026.7
2016-12-27T14:53:12.384Z,1026.8
2016-12-27T17:49:30.912Z,1028.5
2016-12-27T17:49:48.728Z,1028.4
2016-12-27T17:54:51.625Z,1028.5
2016-12-27T17:59:54.519Z,1028.7
2016-12-27T18:04:57.378Z,1028.7
2016-12-27T18:10:00.286Z,1028.8
2016-12-27T22:48:39.375Z,1030.4
2016-12-27T22:53:42.566Z,1030.4
2016-12-27T22:58:45.742Z,1030.5
2016-12-27T23:03:48.868Z,1030.5
2016-12-27T23:09:15.408Z,1030.5
2016-12-27T23:14:39.945Z,1030.4
2016-12-27T23:19:43.076Z,1030.4
2016-12-27T23:24:46.373Z,1030.5
2016-12-27T23:29:49.506Z,1030.5
2016-12-27T23:30:09.313Z,1030.4
